Home

Weather

KSLC Current Conditions

KSLC 171654Z 01004KT 10SM FEW020 FEW042 M01/M05 A3023 RMK AO2 SLP252 T10111050

KSLC Aviation Forecast

TAF KSLC 171720Z 1718/1824 34006KT P6SM SCT040 SCT120 FM180300 15005KT P6SM SCT080 BKN150 FM181900 32006KT P6SM SCT080 BKN120


30° F
Partly Cloudy
Partly Cloudy

Partly Cloudy
Sunday
Partly Cloudy
High 36°/Low 24°
0%
Clear
Monday
Clear
High 41°/Low 28°
0%
Clear
Tuesday
Clear
High 47°/Low 37°
0%
Snow
Wednesday
Snow
High 43°/Low 22°
50%